< < Back
Terminal Aerodrome Forecast


Current Version              Previous Versions:   1  2  3  4  5  6  7  8  9  

Terminal Aerodrome Forecast

225
FTUS44 KMOB 280523
TAFMOB
TAF
KMOB 280523Z 2806/2906 35006KT P6SM SKC
     FM281800 13007KT P6SM SCT060 SCT250=



Latest METAR

036
SAUS80 KWBC 280700
MTRMOB
METAR KMOB 280656Z AUTO 00000KT 10SM CLR 20/17 A2996 RMK AO2 SLP141
T02000167


USA.gov is the U.S. government's official web portal to all federal, state and local government web resources and services.